sensor_id;sensor_type;location;lat;lon;timestamp;P1;durP1;ratioP1;P2;durP2;ratioP2
37065;SDS011;22981;43.080;25.550;2023-11-19T00:01:16;1.67;;;1.57;;
37065;SDS011;22981;43.080;25.550;2023-11-19T00:03:44;2.55;;;1.75;;
37065;SDS011;22981;43.080;25.550;2023-11-19T00:06:11;1.72;;;1.57;;
37065;SDS011;22981;43.080;25.550;2023-11-19T00:08:39;2.62;;;1.67;;
37065;SDS011;22981;43.080;25.550;2023-11-19T00:11:06;4.45;;;1.90;;
37065;SDS011;22981;43.080;25.550;2023-11-19T00:13:34;2.47;;;1.70;;
37065;SDS011;22981;43.080;25.550;2023-11-19T00:16:01;3.08;;;1.60;;
37065;SDS011;22981;43.080;25.550;2023-11-19T00:18:30;2.47;;;1.67;;
37065;SDS011;22981;43.080;25.550;2023-11-19T00:20:58;1.57;;;1.30;;
37065;SDS011;22981;43.080;25.550;2023-11-19T00:23:27;1.92;;;1.50;;
37065;SDS011;22981;43.080;25.550;2023-11-19T00:25:55;2.33;;;1.77;;
37065;SDS011;22981;43.080;25.550;2023-11-19T00:28:23;1.67;;;1.50;;
37065;SDS011;22981;43.080;25.550;2023-11-19T00:30:51;1.60;;;1.50;;
37065;SDS011;22981;43.080;25.550;2023-11-19T00:33:19;2.62;;;2.10;;
37065;SDS011;22981;43.080;25.550;2023-11-19T00:35:46;2.37;;;2.00;;
37065;SDS011;22981;43.080;25.550;2023-11-19T00:38:14;1.92;;;1.60;;
37065;SDS011;22981;43.080;25.550;2023-11-19T00:40:42;5.05;;;2.15;;
37065;SDS011;22981;43.080;25.550;2023-11-19T00:43:10;2.33;;;1.98;;
37065;SDS011;22981;43.080;25.550;2023-11-19T00:45:37;2.62;;;1.80;;
37065;SDS011;22981;43.080;25.550;2023-11-19T00:48:05;2.95;;;1.85;;
37065;SDS011;22981;43.080;25.550;2023-11-19T00:50:32;2.30;;;2.10;;
37065;SDS011;22981;43.080;25.550;2023-11-19T00:53:00;2.15;;;1.92;;
37065;SDS011;22981;43.080;25.550;2023-11-19T00:55:29;2.33;;;1.70;;
37065;SDS011;22981;43.080;25.550;2023-11-19T00:57:57;2.80;;;2.05;;
37065;SDS011;22981;43.080;25.550;2023-11-19T01:00:25;2.67;;;2.00;;
37065;SDS011;22981;43.080;25.550;2023-11-19T01:02:53;1.85;;;1.65;;
37065;SDS011;22981;43.080;25.550;2023-11-19T01:05:20;2.35;;;1.70;;
37065;SDS011;22981;43.080;25.550;2023-11-19T01:07:48;1.85;;;1.47;;
37065;SDS011;22981;43.080;25.550;2023-11-19T01:10:18;2.08;;;1.80;;
37065;SDS011;22981;43.080;25.550;2023-11-19T01:12:45;1.50;;;1.40;;
37065;SDS011;22981;43.080;25.550;2023-11-19T01:15:13;2.12;;;1.82;;
37065;SDS011;22981;43.080;25.550;2023-11-19T01:17:41;1.75;;;1.30;;
37065;SDS011;22981;43.080;25.550;2023-11-19T01:20:09;1.95;;;1.70;;
37065;SDS011;22981;43.080;25.550;2023-11-19T01:22:39;2.37;;;1.72;;
37065;SDS011;22981;43.080;25.550;2023-11-19T01:25:06;2.85;;;1.80;;
37065;SDS011;22981;43.080;25.550;2023-11-19T01:27:34;1.72;;;1.52;;
37065;SDS011;22981;43.080;25.550;2023-11-19T01:30:02;1.57;;;1.32;;
37065;SDS011;22981;43.080;25.550;2023-11-19T01:32:31;1.87;;;1.32;;
37065;SDS011;22981;43.080;25.550;2023-11-19T01:34:58;1.50;;;1.40;;
37065;SDS011;22981;43.080;25.550;2023-11-19T01:37:26;1.40;;;1.30;;
37065;SDS011;22981;43.080;25.550;2023-11-19T01:39:54;2.17;;;1.60;;
37065;SDS011;22981;43.080;25.550;2023-11-19T01:42:21;1.62;;;1.40;;
37065;SDS011;22981;43.080;25.550;2023-11-19T01:45:00;2.50;;;1.75;;
37065;SDS011;22981;43.080;25.550;2023-11-19T01:47:28;4.10;;;1.70;;
37065;SDS011;22981;43.080;25.550;2023-11-19T01:49:57;1.80;;;1.50;;
37065;SDS011;22981;43.080;25.550;2023-11-19T01:52:25;5.25;;;3.17;;
37065;SDS011;22981;43.080;25.550;2023-11-19T01:54:53;1.70;;;1.60;;
37065;SDS011;22981;43.080;25.550;2023-11-19T01:57:21;1.90;;;1.75;;
37065;SDS011;22981;43.080;25.550;2023-11-19T01:59:51;2.20;;;1.40;;
37065;SDS011;22981;43.080;25.550;2023-11-19T02:02:20;2.62;;;1.70;;
37065;SDS011;22981;43.080;25.550;2023-11-19T02:04:49;2.50;;;1.67;;
37065;SDS011;22981;43.080;25.550;2023-11-19T02:07:17;3.90;;;1.70;;
37065;SDS011;22981;43.080;25.550;2023-11-19T02:09:46;1.90;;;1.70;;
37065;SDS011;22981;43.080;25.550;2023-11-19T02:12:13;2.42;;;1.72;;
37065;SDS011;22981;43.080;25.550;2023-11-19T02:14:41;1.95;;;1.67;;
37065;SDS011;22981;43.080;25.550;2023-11-19T02:17:24;1.85;;;1.65;;
37065;SDS011;22981;43.080;25.550;2023-11-19T02:19:53;2.33;;;1.80;;
37065;SDS011;22981;43.080;25.550;2023-11-19T02:22:21;1.95;;;1.67;;
37065;SDS011;22981;43.080;25.550;2023-11-19T02:24:49;2.27;;;1.65;;
37065;SDS011;22981;43.080;25.550;2023-11-19T02:27:23;1.85;;;1.75;;
37065;SDS011;22981;43.080;25.550;2023-11-19T02:29:49;1.85;;;1.75;;
37065;SDS011;22981;43.080;25.550;2023-11-19T02:32:17;2.25;;;1.60;;
37065;SDS011;22981;43.080;25.550;2023-11-19T02:34:46;2.17;;;1.50;;
37065;SDS011;22981;43.080;25.550;2023-11-19T02:37:13;2.00;;;1.70;;
37065;SDS011;22981;43.080;25.550;2023-11-19T02:39:41;2.12;;;1.60;;
37065;SDS011;22981;43.080;25.550;2023-11-19T02:42:08;2.15;;;1.80;;
37065;SDS011;22981;43.080;25.550;2023-11-19T02:44:36;2.35;;;1.70;;
37065;SDS011;22981;43.080;25.550;2023-11-19T02:47:05;2.85;;;1.95;;
37065;SDS011;22981;43.080;25.550;2023-11-19T02:49:33;2.25;;;1.90;;
37065;SDS011;22981;43.080;25.550;2023-11-19T02:52:03;2.17;;;1.87;;
37065;SDS011;22981;43.080;25.550;2023-11-19T02:54:31;1.90;;;1.67;;
37065;SDS011;22981;43.080;25.550;2023-11-19T02:57:00;2.95;;;2.20;;
37065;SDS011;22981;43.080;25.550;2023-11-19T02:59:30;2.10;;;1.77;;
37065;SDS011;22981;43.080;25.550;2023-11-19T03:01:59;5.22;;;1.77;;
37065;SDS011;22981;43.080;25.550;2023-11-19T03:04:27;1.90;;;1.67;;
37065;SDS011;22981;43.080;25.550;2023-11-19T03:06:54;2.05;;;1.77;;
37065;SDS011;22981;43.080;25.550;2023-11-19T03:09:22;2.22;;;1.80;;
37065;SDS011;22981;43.080;25.550;2023-11-19T03:11:50;2.37;;;2.08;;
37065;SDS011;22981;43.080;25.550;2023-11-19T03:14:17;2.37;;;1.80;;
37065;SDS011;22981;43.080;25.550;2023-11-19T03:16:45;3.00;;;2.10;;
37065;SDS011;22981;43.080;25.550;2023-11-19T03:19:13;2.95;;;2.17;;
37065;SDS011;22981;43.080;25.550;2023-11-19T03:21:40;2.17;;;1.98;;
37065;SDS011;22981;43.080;25.550;2023-11-19T03:24:08;2.17;;;1.80;;
37065;SDS011;22981;43.080;25.550;2023-11-19T03:26:36;2.47;;;1.80;;
37065;SDS011;22981;43.080;25.550;2023-11-19T03:29:03;3.52;;;2.10;;
37065;SDS011;22981;43.080;25.550;2023-11-19T03:31:31;2.15;;;1.90;;
37065;SDS011;22981;43.080;25.550;2023-11-19T03:33:59;2.10;;;1.90;;
37065;SDS011;22981;43.080;25.550;2023-11-19T03:36:31;2.17;;;1.92;;
37065;SDS011;22981;43.080;25.550;2023-11-19T03:41:26;2.37;;;2.02;;
37065;SDS011;22981;43.080;25.550;2023-11-19T03:43:53;2.80;;;2.30;;
37065;SDS011;22981;43.080;25.550;2023-11-19T03:46:21;2.58;;;1.95;;
37065;SDS011;22981;43.080;25.550;2023-11-19T03:48:49;2.05;;;1.85;;
37065;SDS011;22981;43.080;25.550;2023-11-19T03:51:17;2.30;;;1.98;;
37065;SDS011;22981;43.080;25.550;2023-11-19T03:53:44;2.42;;;2.20;;
37065;SDS011;22981;43.080;25.550;2023-11-19T03:56:12;4.17;;;2.17;;
37065;SDS011;22981;43.080;25.550;2023-11-19T03:58:40;3.25;;;2.30;;
37065;SDS011;22981;43.080;25.550;2023-11-19T04:01:13;2.60;;;2.37;;
37065;SDS011;22981;43.080;25.550;2023-11-19T04:03:40;2.70;;;2.45;;
37065;SDS011;22981;43.080;25.550;2023-11-19T04:06:07;2.62;;;2.37;;
37065;SDS011;22981;43.080;25.550;2023-11-19T04:08:35;2.72;;;2.33;;
37065;SDS011;22981;43.080;25.550;2023-11-19T04:11:03;2.90;;;2.35;;
37065;SDS011;22981;43.080;25.550;2023-11-19T04:13:31;4.03;;;2.58;;
37065;SDS011;22981;43.080;25.550;2023-11-19T04:15:59;2.75;;;2.25;;
37065;SDS011;22981;43.080;25.550;2023-11-19T04:18:27;2.65;;;2.30;;
37065;SDS011;22981;43.080;25.550;2023-11-19T04:20:54;2.33;;;2.00;;
37065;SDS011;22981;43.080;25.550;2023-11-19T04:23:22;2.72;;;2.35;;
37065;SDS011;22981;43.080;25.550;2023-11-19T04:25:52;4.10;;;3.10;;
37065;SDS011;22981;43.080;25.550;2023-11-19T04:28:19;2.75;;;2.33;;
37065;SDS011;22981;43.080;25.550;2023-11-19T04:30:48;2.50;;;2.27;;
37065;SDS011;22981;43.080;25.550;2023-11-19T04:33:15;2.52;;;2.33;;
37065;SDS011;22981;43.080;25.550;2023-11-19T04:35:43;2.45;;;2.25;;
37065;SDS011;22981;43.080;25.550;2023-11-19T04:38:10;2.52;;;2.25;;
37065;SDS011;22981;43.080;25.550;2023-11-19T04:40:38;2.30;;;2.10;;
37065;SDS011;22981;43.080;25.550;2023-11-19T04:43:05;3.08;;;2.40;;
37065;SDS011;22981;43.080;25.550;2023-11-19T04:45:33;5.45;;;2.40;;
37065;SDS011;22981;43.080;25.550;2023-11-19T04:48:00;3.00;;;2.50;;
37065;SDS011;22981;43.080;25.550;2023-11-19T04:50:28;2.72;;;2.50;;
37065;SDS011;22981;43.080;25.550;2023-11-19T04:52:56;3.55;;;2.70;;
37065;SDS011;22981;43.080;25.550;2023-11-19T04:55:23;6.97;;;3.87;;
37065;SDS011;22981;43.080;25.550;2023-11-19T04:57:53;9.23;;;4.60;;
37065;SDS011;22981;43.080;25.550;2023-11-19T05:00:20;8.38;;;4.05;;
37065;SDS011;22981;43.080;25.550;2023-11-19T05:02:48;8.58;;;4.87;;
37065;SDS011;22981;43.080;25.550;2023-11-19T05:05:16;4.37;;;3.17;;
37065;SDS011;22981;43.080;25.550;2023-11-19T05:07:44;2.98;;;2.62;;
37065;SDS011;22981;43.080;25.550;2023-11-19T05:10:11;3.30;;;2.70;;
37065;SDS011;22981;43.080;25.550;2023-11-19T05:12:40;15.53;;;9.35;;
37065;SDS011;22981;43.080;25.550;2023-11-19T05:15:07;5.45;;;3.15;;
37065;SDS011;22981;43.080;25.550;2023-11-19T05:17:36;5.25;;;3.62;;
37065;SDS011;22981;43.080;25.550;2023-11-19T05:20:05;3.35;;;2.65;;
37065;SDS011;22981;43.080;25.550;2023-11-19T05:22:34;5.17;;;2.60;;
37065;SDS011;22981;43.080;25.550;2023-11-19T05:25:02;3.65;;;3.15;;
37065;SDS011;22981;43.080;25.550;2023-11-19T05:27:31;5.05;;;3.72;;
37065;SDS011;22981;43.080;25.550;2023-11-19T05:29:59;3.40;;;3.00;;
37065;SDS011;22981;43.080;25.550;2023-11-19T05:32:26;4.80;;;2.50;;
37065;SDS011;22981;43.080;25.550;2023-11-19T05:34:54;3.72;;;3.10;;
37065;SDS011;22981;43.080;25.550;2023-11-19T05:37:21;4.33;;;3.65;;
37065;SDS011;22981;43.080;25.550;2023-11-19T05:39:49;4.42;;;3.50;;
37065;SDS011;22981;43.080;25.550;2023-11-19T05:42:17;4.53;;;3.27;;
37065;SDS011;22981;43.080;25.550;2023-11-19T05:44:44;3.80;;;3.08;;
37065;SDS011;22981;43.080;25.550;2023-11-19T05:47:12;21.42;;;3.83;;
37065;SDS011;22981;43.080;25.550;2023-11-19T05:49:39;3.65;;;3.20;;
37065;SDS011;22981;43.080;25.550;2023-11-19T05:52:07;9.65;;;3.67;;
37065;SDS011;22981;43.080;25.550;2023-11-19T05:54:36;15.53;;;8.85;;
37065;SDS011;22981;43.080;25.550;2023-11-19T05:57:07;5.37;;;4.47;;
37065;SDS011;22981;43.080;25.550;2023-11-19T05:59:38;4.37;;;3.47;;
37065;SDS011;22981;43.080;25.550;2023-11-19T06:02:06;8.95;;;8.15;;
37065;SDS011;22981;43.080;25.550;2023-11-19T06:04:34;18.32;;;16.80;;
37065;SDS011;22981;43.080;25.550;2023-11-19T06:07:01;7.78;;;6.97;;
37065;SDS011;22981;43.080;25.550;2023-11-19T06:09:29;5.17;;;4.55;;
37065;SDS011;22981;43.080;25.550;2023-11-19T06:11:58;6.42;;;5.78;;
37065;SDS011;22981;43.080;25.550;2023-11-19T06:14:27;10.50;;;9.53;;
37065;SDS011;22981;43.080;25.550;2023-11-19T06:16:55;6.28;;;5.67;;
37065;SDS011;22981;43.080;25.550;2023-11-19T06:19:22;7.58;;;6.45;;
37065;SDS011;22981;43.080;25.550;2023-11-19T06:24:16;16.30;;;14.93;;
37065;SDS011;22981;43.080;25.550;2023-11-19T06:26:43;14.80;;;13.60;;
37065;SDS011;22981;43.080;25.550;2023-11-19T06:29:11;5.47;;;4.92;;
37065;SDS011;22981;43.080;25.550;2023-11-19T06:31:40;7.47;;;5.00;;
37065;SDS011;22981;43.080;25.550;2023-11-19T06:34:08;7.28;;;6.03;;
37065;SDS011;22981;43.080;25.550;2023-11-19T06:36:36;8.90;;;6.60;;
37065;SDS011;22981;43.080;25.550;2023-11-19T06:39:04;7.37;;;6.62;;
37065;SDS011;22981;43.080;25.550;2023-11-19T06:41:32;6.53;;;5.85;;
37065;SDS011;22981;43.080;25.550;2023-11-19T06:43:59;5.08;;;4.58;;
37065;SDS011;22981;43.080;25.550;2023-11-19T06:46:27;4.75;;;4.22;;
37065;SDS011;22981;43.080;25.550;2023-11-19T06:48:54;4.45;;;4.05;;
37065;SDS011;22981;43.080;25.550;2023-11-19T06:51:22;11.05;;;4.95;;
37065;SDS011;22981;43.080;25.550;2023-11-19T06:53:50;4.58;;;4.15;;
37065;SDS011;22981;43.080;25.550;2023-11-19T06:56:23;4.85;;;3.85;;
37065;SDS011;22981;43.080;25.550;2023-11-19T06:58:47;4.33;;;3.80;;
37065;SDS011;22981;43.080;25.550;2023-11-19T07:01:15;4.70;;;4.20;;
37065;SDS011;22981;43.080;25.550;2023-11-19T07:03:46;5.95;;;4.85;;
37065;SDS011;22981;43.080;25.550;2023-11-19T07:06:14;5.47;;;4.97;;
37065;SDS011;22981;43.080;25.550;2023-11-19T07:08:42;6.30;;;3.98;;
37065;SDS011;22981;43.080;25.550;2023-11-19T07:11:13;4.10;;;3.70;;
37065;SDS011;22981;43.080;25.550;2023-11-19T07:13:42;5.20;;;4.67;;
37065;SDS011;22981;43.080;25.550;2023-11-19T07:16:11;4.87;;;4.37;;
37065;SDS011;22981;43.080;25.550;2023-11-19T07:18:41;5.28;;;4.47;;
37065;SDS011;22981;43.080;25.550;2023-11-19T07:21:09;6.80;;;5.03;;
37065;SDS011;22981;43.080;25.550;2023-11-19T07:23:37;8.93;;;5.70;;
37065;SDS011;22981;43.080;25.550;2023-11-19T07:26:05;10.30;;;7.53;;
37065;SDS011;22981;43.080;25.550;2023-11-19T07:28:34;5.92;;;4.90;;
37065;SDS011;22981;43.080;25.550;2023-11-19T07:31:02;5.53;;;4.42;;
37065;SDS011;22981;43.080;25.550;2023-11-19T07:33:29;5.37;;;4.62;;
37065;SDS011;22981;43.080;25.550;2023-11-19T07:35:57;6.92;;;5.30;;
37065;SDS011;22981;43.080;25.550;2023-11-19T07:38:25;5.33;;;4.53;;
37065;SDS011;22981;43.080;25.550;2023-11-19T07:40:52;6.62;;;5.17;;
37065;SDS011;22981;43.080;25.550;2023-11-19T07:43:20;8.28;;;5.85;;
37065;SDS011;22981;43.080;25.550;2023-11-19T07:45:47;5.55;;;4.60;;
37065;SDS011;22981;43.080;25.550;2023-11-19T07:48:15;4.42;;;4.03;;
37065;SDS011;22981;43.080;25.550;2023-11-19T07:50:44;4.03;;;3.52;;
37065;SDS011;22981;43.080;25.550;2023-11-19T07:53:12;5.33;;;3.87;;
37065;SDS011;22981;43.080;25.550;2023-11-19T07:55:39;4.25;;;3.47;;
37065;SDS011;22981;43.080;25.550;2023-11-19T07:58:07;3.75;;;3.37;;
37065;SDS011;22981;43.080;25.550;2023-11-19T08:00:34;4.05;;;3.65;;
37065;SDS011;22981;43.080;25.550;2023-11-19T08:03:03;5.22;;;4.53;;
37065;SDS011;22981;43.080;25.550;2023-11-19T08:05:31;4.50;;;4.10;;
37065;SDS011;22981;43.080;25.550;2023-11-19T08:07:59;5.15;;;4.65;;
37065;SDS011;22981;43.080;25.550;2023-11-19T08:10:26;5.25;;;4.22;;
37065;SDS011;22981;43.080;25.550;2023-11-19T08:12:54;6.00;;;4.95;;
37065;SDS011;22981;43.080;25.550;2023-11-19T08:15:21;5.22;;;4.72;;
37065;SDS011;22981;43.080;25.550;2023-11-19T08:17:49;6.33;;;5.55;;
37065;SDS011;22981;43.080;25.550;2023-11-19T08:20:17;8.33;;;6.75;;
37065;SDS011;22981;43.080;25.550;2023-11-19T08:22:44;8.20;;;7.00;;
37065;SDS011;22981;43.080;25.550;2023-11-19T08:25:12;5.10;;;4.50;;
37065;SDS011;22981;43.080;25.550;2023-11-19T08:27:39;4.30;;;3.90;;
37065;SDS011;22981;43.080;25.550;2023-11-19T08:30:08;3.77;;;3.00;;
37065;SDS011;22981;43.080;25.550;2023-11-19T08:32:36;3.55;;;3.20;;
37065;SDS011;22981;43.080;25.550;2023-11-19T08:35:04;3.60;;;3.02;;
37065;SDS011;22981;43.080;25.550;2023-11-19T08:37:32;4.47;;;3.90;;
37065;SDS011;22981;43.080;25.550;2023-11-19T08:40:02;5.40;;;4.90;;
37065;SDS011;22981;43.080;25.550;2023-11-19T08:42:30;3.27;;;2.98;;
37065;SDS011;22981;43.080;25.550;2023-11-19T08:45:00;4.20;;;3.80;;
37065;SDS011;22981;43.080;25.550;2023-11-19T08:47:28;4.40;;;4.00;;
37065;SDS011;22981;43.080;25.550;2023-11-19T08:49:55;4.20;;;3.42;;
37065;SDS011;22981;43.080;25.550;2023-11-19T08:52:23;3.52;;;3.12;;
37065;SDS011;22981;43.080;25.550;2023-11-19T08:54:51;3.92;;;3.40;;
37065;SDS011;22981;43.080;25.550;2023-11-19T08:57:18;4.37;;;3.50;;
37065;SDS011;22981;43.080;25.550;2023-11-19T08:59:46;3.00;;;2.65;;
37065;SDS011;22981;43.080;25.550;2023-11-19T09:02:14;3.45;;;3.15;;
37065;SDS011;22981;43.080;25.550;2023-11-19T09:04:42;3.35;;;3.00;;
37065;SDS011;22981;43.080;25.550;2023-11-19T09:07:09;4.50;;;4.10;;
37065;SDS011;22981;43.080;25.550;2023-11-19T09:09:37;3.17;;;2.87;;
37065;SDS011;22981;43.080;25.550;2023-11-19T09:12:04;2.55;;;2.35;;
37065;SDS011;22981;43.080;25.550;2023-11-19T09:14:33;2.70;;;2.50;;
37065;SDS011;22981;43.080;25.550;2023-11-19T09:17:00;3.52;;;3.20;;
37065;SDS011;22981;43.080;25.550;2023-11-19T09:19:28;3.33;;;3.02;;
37065;SDS011;22981;43.080;25.550;2023-11-19T09:21:57;4.25;;;3.70;;
37065;SDS011;22981;43.080;25.550;2023-11-19T09:24:24;3.85;;;3.35;;
37065;SDS011;22981;43.080;25.550;2023-11-19T09:26:52;4.75;;;2.95;;
37065;SDS011;22981;43.080;25.550;2023-11-19T09:29:21;4.55;;;4.15;;
37065;SDS011;22981;43.080;25.550;2023-11-19T09:31:49;3.87;;;3.50;;
37065;SDS011;22981;43.080;25.550;2023-11-19T09:34:17;3.65;;;3.00;;
37065;SDS011;22981;43.080;25.550;2023-11-19T09:36:44;5.53;;;3.55;;
37065;SDS011;22981;43.080;25.550;2023-11-19T09:39:12;3.17;;;2.87;;
37065;SDS011;22981;43.080;25.550;2023-11-19T09:41:41;5.30;;;3.77;;
37065;SDS011;22981;43.080;25.550;2023-11-19T09:44:10;4.15;;;3.10;;
37065;SDS011;22981;43.080;25.550;2023-11-19T09:46:41;4.28;;;3.75;;
37065;SDS011;22981;43.080;25.550;2023-11-19T09:49:09;4.80;;;3.90;;
37065;SDS011;22981;43.080;25.550;2023-11-19T09:51:38;5.92;;;5.33;;
37065;SDS011;22981;43.080;25.550;2023-11-19T09:54:05;4.08;;;3.67;;
37065;SDS011;22981;43.080;25.550;2023-11-19T09:56:33;4.62;;;4.22;;
37065;SDS011;22981;43.080;25.550;2023-11-19T09:59:02;7.25;;;5.33;;
37065;SDS011;22981;43.080;25.550;2023-11-19T10:01:30;257.65;;;104.25;;
37065;SDS011;22981;43.080;25.550;2023-11-19T10:03:58;613.10;;;260.75;;
37065;SDS011;22981;43.080;25.550;2023-11-19T10:06:26;516.25;;;203.07;;
37065;SDS011;22981;43.080;25.550;2023-11-19T10:08:55;124.53;;;61.35;;
37065;SDS011;22981;43.080;25.550;2023-11-19T10:11:22;108.60;;;74.07;;
37065;SDS011;22981;43.080;25.550;2023-11-19T10:13:51;13.88;;;10.98;;
37065;SDS011;22981;43.080;25.550;2023-11-19T10:16:20;10.30;;;7.95;;
37065;SDS011;22981;43.080;25.550;2023-11-19T10:18:49;8.08;;;6.55;;
37065;SDS011;22981;43.080;25.550;2023-11-19T10:21:17;6.22;;;4.87;;
37065;SDS011;22981;43.080;25.550;2023-11-19T10:23:49;7.83;;;6.95;;
37065;SDS011;22981;43.080;25.550;2023-11-19T10:26:19;9.70;;;8.10;;
37065;SDS011;22981;43.080;25.550;2023-11-19T10:28:47;7.53;;;6.78;;
37065;SDS011;22981;43.080;25.550;2023-11-19T10:31:16;6.42;;;4.83;;
37065;SDS011;22981;43.080;25.550;2023-11-19T10:33:44;14.75;;;13.20;;
37065;SDS011;22981;43.080;25.550;2023-11-19T10:36:12;5.00;;;4.28;;
37065;SDS011;22981;43.080;25.550;2023-11-19T10:38:40;13.15;;;9.98;;
37065;SDS011;22981;43.080;25.550;2023-11-19T10:41:09;8.43;;;6.35;;
37065;SDS011;22981;43.080;25.550;2023-11-19T10:43:43;8.78;;;7.65;;
37065;SDS011;22981;43.080;25.550;2023-11-19T10:46:12;15.18;;;13.15;;
37065;SDS011;22981;43.080;25.550;2023-11-19T10:48:42;7.00;;;6.35;;
37065;SDS011;22981;43.080;25.550;2023-11-19T10:51:10;5.30;;;4.80;;
37065;SDS011;22981;43.080;25.550;2023-11-19T10:53:41;4.03;;;3.62;;
37065;SDS011;22981;43.080;25.550;2023-11-19T10:56:11;4.35;;;3.85;;
37065;SDS011;22981;43.080;25.550;2023-11-19T10:58:44;4.22;;;3.83;;
37065;SDS011;22981;43.080;25.550;2023-11-19T11:01:19;3.70;;;3.37;;
37065;SDS011;22981;43.080;25.550;2023-11-19T11:03:48;5.28;;;3.80;;
37065;SDS011;22981;43.080;25.550;2023-11-19T11:06:19;5.90;;;5.30;;
37065;SDS011;22981;43.080;25.550;2023-11-19T11:08:49;6.42;;;4.58;;
37065;SDS011;22981;43.080;25.550;2023-11-19T11:11:17;4.75;;;4.28;;
37065;SDS011;22981;43.080;25.550;2023-11-19T11:13:49;4.75;;;3.95;;
37065;SDS011;22981;43.080;25.550;2023-11-19T11:16:19;5.60;;;4.83;;
37065;SDS011;22981;43.080;25.550;2023-11-19T11:18:48;4.03;;;3.62;;
37065;SDS011;22981;43.080;25.550;2023-11-19T11:21:17;6.15;;;4.90;;
37065;SDS011;22981;43.080;25.550;2023-11-19T11:23:58;4.92;;;4.40;;
37065;SDS011;22981;43.080;25.550;2023-11-19T11:32:22;4.87;;;4.45;;
37065;SDS011;22981;43.080;25.550;2023-11-19T11:37:55;26.75;;;15.60;;
37065;SDS011;22981;43.080;25.550;2023-11-19T11:40:32;14.30;;;10.32;;
37065;SDS011;22981;43.080;25.550;2023-11-19T11:43:02;4.95;;;4.45;;
37065;SDS011;22981;43.080;25.550;2023-11-19T11:48:08;4.00;;;3.58;;
37065;SDS011;22981;43.080;25.550;2023-11-19T11:50:47;3.60;;;3.25;;
37065;SDS011;22981;43.080;25.550;2023-11-19T11:53:16;3.75;;;3.30;;
37065;SDS011;22981;43.080;25.550;2023-11-19T11:58:31;5.25;;;4.08;;
37065;SDS011;22981;43.080;25.550;2023-11-19T12:01:01;5.40;;;4.47;;
37065;SDS011;22981;43.080;25.550;2023-11-19T12:03:31;7.80;;;5.70;;
37065;SDS011;22981;43.080;25.550;2023-11-19T12:05:59;8.33;;;6.85;;
37065;SDS011;22981;43.080;25.550;2023-11-19T12:08:27;4.72;;;4.17;;
37065;SDS011;22981;43.080;25.550;2023-11-19T12:10:56;4.12;;;3.65;;
37065;SDS011;22981;43.080;25.550;2023-11-19T12:13:29;5.00;;;4.22;;
37065;SDS011;22981;43.080;25.550;2023-11-19T12:16:12;5.47;;;3.83;;
37065;SDS011;22981;43.080;25.550;2023-11-19T12:18:40;3.83;;;3.15;;
37065;SDS011;22981;43.080;25.550;2023-11-19T12:21:08;3.87;;;3.10;;
37065;SDS011;22981;43.080;25.550;2023-11-19T12:23:43;3.98;;;3.58;;
37065;SDS011;22981;43.080;25.550;2023-11-19T12:26:32;4.62;;;3.72;;
37065;SDS011;22981;43.080;25.550;2023-11-19T12:29:01;5.30;;;3.80;;
37065;SDS011;22981;43.080;25.550;2023-11-19T12:31:32;5.47;;;4.97;;
37065;SDS011;22981;43.080;25.550;2023-11-19T12:34:04;6.80;;;3.77;;
37065;SDS011;22981;43.080;25.550;2023-11-19T12:36:35;3.40;;;3.05;;
37065;SDS011;22981;43.080;25.550;2023-11-19T12:39:02;4.05;;;3.65;;
37065;SDS011;22981;43.080;25.550;2023-11-19T12:41:30;3.60;;;3.00;;
37065;SDS011;22981;43.080;25.550;2023-11-19T12:44:09;3.22;;;2.95;;
37065;SDS011;22981;43.080;25.550;2023-11-19T12:46:37;3.52;;;2.70;;
37065;SDS011;22981;43.080;25.550;2023-11-19T12:49:05;3.62;;;3.22;;
37065;SDS011;22981;43.080;25.550;2023-11-19T12:51:32;3.55;;;3.00;;
37065;SDS011;22981;43.080;25.550;2023-11-19T12:54:00;4.47;;;3.80;;
37065;SDS011;22981;43.080;25.550;2023-11-19T12:56:27;4.72;;;4.22;;
37065;SDS011;22981;43.080;25.550;2023-11-19T12:58:55;8.33;;;7.53;;
37065;SDS011;22981;43.080;25.550;2023-11-19T13:01:23;7.70;;;6.92;;
37065;SDS011;22981;43.080;25.550;2023-11-19T13:03:50;5.83;;;5.10;;
37065;SDS011;22981;43.080;25.550;2023-11-19T13:06:18;5.53;;;4.28;;
37065;SDS011;22981;43.080;25.550;2023-11-19T13:08:48;3.58;;;3.25;;
37065;SDS011;22981;43.080;25.550;2023-11-19T13:11:30;3.60;;;3.30;;
37065;SDS011;22981;43.080;25.550;2023-11-19T13:14:03;7.53;;;4.80;;
37065;SDS011;22981;43.080;25.550;2023-11-19T13:16:33;4.78;;;4.08;;
37065;SDS011;22981;43.080;25.550;2023-11-19T13:19:02;3.45;;;3.02;;
37065;SDS011;22981;43.080;25.550;2023-11-19T13:21:30;4.22;;;3.72;;
37065;SDS011;22981;43.080;25.550;2023-11-19T13:23:59;4.28;;;3.80;;
37065;SDS011;22981;43.080;25.550;2023-11-19T13:26:26;4.10;;;3.70;;
37065;SDS011;22981;43.080;25.550;2023-11-19T13:28:54;5.83;;;4.97;;
37065;SDS011;22981;43.080;25.550;2023-11-19T13:31:22;5.33;;;4.08;;
37065;SDS011;22981;43.080;25.550;2023-11-19T13:33:50;4.67;;;4.28;;
37065;SDS011;22981;43.080;25.550;2023-11-19T13:36:17;8.53;;;6.25;;
37065;SDS011;22981;43.080;25.550;2023-11-19T13:38:45;15.13;;;8.50;;
37065;SDS011;22981;43.080;25.550;2023-11-19T13:41:13;12.95;;;7.65;;
37065;SDS011;22981;43.080;25.550;2023-11-19T13:43:40;22.17;;;12.37;;
37065;SDS011;22981;43.080;25.550;2023-11-19T13:46:08;22.42;;;9.28;;
37065;SDS011;22981;43.080;25.550;2023-11-19T13:48:35;11.95;;;8.85;;
37065;SDS011;22981;43.080;25.550;2023-11-19T13:51:03;9.93;;;8.03;;
37065;SDS011;22981;43.080;25.550;2023-11-19T13:53:31;5.12;;;4.55;;
37065;SDS011;22981;43.080;25.550;2023-11-19T13:55:58;8.53;;;7.58;;
37065;SDS011;22981;43.080;25.550;2023-11-19T13:58:26;7.75;;;5.90;;
37065;SDS011;22981;43.080;25.550;2023-11-19T14:00:54;6.83;;;5.72;;
37065;SDS011;22981;43.080;25.550;2023-11-19T14:03:21;7.60;;;5.72;;
37065;SDS011;22981;43.080;25.550;2023-11-19T14:05:49;8.88;;;7.42;;
37065;SDS011;22981;43.080;25.550;2023-11-19T14:08:18;7.00;;;6.20;;
37065;SDS011;22981;43.080;25.550;2023-11-19T14:10:45;6.30;;;4.78;;
37065;SDS011;22981;43.080;25.550;2023-11-19T14:13:13;34.53;;;25.65;;
37065;SDS011;22981;43.080;25.550;2023-11-19T14:15:41;8.18;;;7.35;;
37065;SDS011;22981;43.080;25.550;2023-11-19T14:18:08;14.98;;;13.48;;
37065;SDS011;22981;43.080;25.550;2023-11-19T14:20:36;12.88;;;11.50;;
37065;SDS011;22981;43.080;25.550;2023-11-19T14:23:04;7.37;;;6.78;;
37065;SDS011;22981;43.080;25.550;2023-11-19T14:25:32;6.47;;;5.87;;
37065;SDS011;22981;43.080;25.550;2023-11-19T14:28:00;10.78;;;9.88;;
37065;SDS011;22981;43.080;25.550;2023-11-19T14:30:27;4.37;;;3.87;;
37065;SDS011;22981;43.080;25.550;2023-11-19T14:32:55;8.90;;;6.12;;
37065;SDS011;22981;43.080;25.550;2023-11-19T14:35:22;7.22;;;5.80;;
37065;SDS011;22981;43.080;25.550;2023-11-19T14:37:50;9.58;;;8.30;;
37065;SDS011;22981;43.080;25.550;2023-11-19T14:40:18;11.30;;;8.48;;
37065;SDS011;22981;43.080;25.550;2023-11-19T14:42:46;17.32;;;11.15;;
37065;SDS011;22981;43.080;25.550;2023-11-19T14:45:13;12.40;;;8.50;;
37065;SDS011;22981;43.080;25.550;2023-11-19T14:47:41;13.53;;;8.40;;
37065;SDS011;22981;43.080;25.550;2023-11-19T14:50:09;14.73;;;10.30;;
37065;SDS011;22981;43.080;25.550;2023-11-19T14:52:37;10.18;;;8.03;;
37065;SDS011;22981;43.080;25.550;2023-11-19T14:55:05;7.65;;;6.85;;
37065;SDS011;22981;43.080;25.550;2023-11-19T14:57:33;7.30;;;6.60;;
37065;SDS011;22981;43.080;25.550;2023-11-19T15:00:01;5.72;;;5.22;;